createdAt,value
2022-10-13T00:01:31.798Z,30.07
2022-10-13T00:03:58.897Z,24.73
2022-10-13T00:06:27.689Z,22.63
2022-10-13T00:08:55.394Z,25.67
2022-10-13T00:11:23.290Z,24.53
2022-10-13T00:13:50.907Z,22.30
2022-10-13T00:16:19.301Z,29.20
2022-10-13T00:18:46.861Z,23.27
2022-10-13T00:21:15.038Z,26.20
2022-10-13T00:23:43.666Z,25.53
2022-10-13T00:26:11.637Z,26.20
2022-10-13T00:28:39.370Z,28.93
2022-10-13T00:31:15.251Z,22.87
2022-10-13T00:33:42.363Z,25.90
2022-10-13T00:36:09.482Z,32.10
2022-10-13T00:38:36.628Z,30.03
2022-10-13T00:41:05.190Z,24.27
2022-10-13T00:43:47.166Z,26.43
2022-10-13T00:46:14.622Z,29.80
2022-10-13T00:48:42.490Z,25.97
2022-10-13T00:51:10.545Z,26.17
2022-10-13T00:53:38.764Z,24.97
2022-10-13T00:56:09.585Z,28.23
2022-10-13T00:58:37.069Z,27.93
2022-10-13T01:01:05.012Z,22.33
2022-10-13T01:03:32.157Z,25.57
2022-10-13T01:06:00.889Z,25.50
2022-10-13T01:08:28.566Z,28.90
2022-10-13T01:11:04.673Z,20.47
2022-10-13T01:13:36.030Z,27.40
2022-10-13T01:16:10.149Z,26.30
2022-10-13T01:18:41.305Z,27.03
2022-10-13T01:21:14.346Z,31.10
2022-10-13T01:23:59.494Z,27.27
2022-10-13T01:26:37.190Z,23.30
2022-10-13T01:29:19.187Z,25.70
2022-10-13T01:31:49.817Z,26.30
2022-10-13T01:34:19.942Z,28.93
2022-10-13T01:36:49.492Z,25.20
2022-10-13T01:39:21.601Z,21.07
2022-10-13T01:41:51.226Z,28.00
2022-10-13T01:44:21.771Z,25.00
2022-10-13T01:46:54.928Z,25.50
2022-10-13T01:49:24.283Z,22.33
2022-10-13T01:51:51.829Z,27.23
2022-10-13T01:54:18.921Z,30.30
2022-10-13T01:56:52.229Z,23.70
2022-10-13T01:59:19.582Z,31.27
2022-10-13T02:01:55.567Z,23.23
2022-10-13T02:04:29.796Z,29.33
2022-10-13T02:06:59.300Z,21.73
2022-10-13T02:09:29.289Z,21.23
2022-10-13T02:11:59.192Z,20.17
2022-10-13T02:14:30.927Z,22.43
2022-10-13T02:17:00.668Z,22.43
2022-10-13T02:19:29.429Z,26.63
2022-10-13T02:21:57.173Z,27.17
2022-10-13T02:24:24.355Z,32.97
2022-10-13T02:26:51.888Z,25.87
2022-10-13T02:29:20.781Z,22.13
2022-10-13T02:31:48.383Z,26.50
2022-10-13T02:34:15.993Z,27.20
2022-10-13T02:36:47.960Z,30.97
2022-10-13T02:39:15.195Z,24.40
2022-10-13T02:41:42.304Z,21.30
2022-10-13T02:44:09.389Z,48.73
2022-10-13T02:46:40.981Z,22.07
2022-10-13T02:49:08.048Z,21.10
2022-10-13T02:51:39.673Z,21.73
2022-10-13T02:54:08.918Z,27.10
2022-10-13T02:56:36.060Z,25.30
2022-10-13T02:59:03.148Z,26.03
2022-10-13T03:01:30.282Z,22.93
2022-10-13T03:03:57.407Z,28.23
2022-10-13T03:06:24.469Z,22.60
2022-10-13T03:08:51.622Z,21.70
2022-10-13T03:11:20.074Z,20.73
2022-10-13T03:13:47.199Z,27.20
2022-10-13T03:16:14.288Z,24.33
2022-10-13T03:18:41.440Z,28.77
2022-10-13T03:21:08.518Z,24.23
2022-10-13T03:23:37.549Z,26.40
2022-10-13T03:26:04.658Z,20.57
2022-10-13T03:28:33.133Z,23.33
2022-10-13T03:31:01.098Z,25.20
2022-10-13T03:33:28.190Z,25.33
2022-10-13T03:35:58.621Z,29.50
2022-10-13T03:38:25.743Z,24.03
2022-10-13T03:40:52.847Z,23.63
2022-10-13T03:43:19.950Z,22.57
2022-10-13T03:45:56.042Z,24.30
2022-10-13T03:48:23.110Z,26.20
2022-10-13T03:50:50.225Z,20.97
2022-10-13T03:53:17.497Z,23.83
2022-10-13T03:55:49.471Z,25.83
2022-10-13T03:58:16.573Z,18.40
2022-10-13T04:00:46.232Z,21.60
2022-10-13T04:03:14.704Z,28.27
2022-10-13T04:05:41.876Z,25.23
2022-10-13T04:08:09.033Z,25.63
2022-10-13T04:10:36.120Z,25.50
2022-10-13T04:13:03.228Z,24.43
2022-10-13T04:15:30.343Z,23.67
2022-10-13T04:17:57.494Z,19.50
2022-10-13T04:20:25.909Z,25.13
2022-10-13T04:22:53.666Z,24.23
2022-10-13T04:25:20.754Z,22.13
2022-10-13T04:27:47.864Z,22.70
2022-10-13T04:30:15.156Z,21.40
2022-10-13T04:32:42.248Z,24.10
2022-10-13T04:35:11.806Z,23.57
2022-10-13T04:37:44.817Z,27.73
2022-10-13T04:40:12.721Z,18.40
2022-10-13T04:42:39.842Z,22.83
2022-10-13T04:45:07.650Z,25.93
2022-10-13T04:47:37.142Z,22.17
2022-10-13T04:50:04.669Z,24.30
2022-10-13T04:52:31.807Z,19.70
2022-10-13T04:55:00.261Z,25.57
2022-10-13T04:57:27.376Z,18.40
2022-10-13T04:59:54.501Z,23.97
2022-10-13T05:02:21.989Z,21.53
2022-10-13T05:04:49.225Z,22.97
2022-10-13T05:07:18.515Z,22.27
2022-10-13T05:09:45.990Z,23.43
2022-10-13T05:12:14.509Z,20.03
2022-10-13T05:14:41.614Z,27.30
2022-10-13T05:17:08.730Z,27.63
2022-10-13T05:19:35.800Z,19.70
2022-10-13T05:22:02.910Z,19.50
2022-10-13T05:24:30.117Z,23.20
2022-10-13T05:26:57.252Z,21.10
2022-10-13T05:29:25.765Z,25.80
2022-10-13T05:31:52.828Z,21.87
2022-10-13T05:34:19.975Z,16.60
2022-10-13T05:36:47.074Z,21.20
2022-10-13T05:39:14.179Z,21.60
2022-10-13T05:41:41.258Z,28.83
2022-10-13T05:44:13.611Z,25.70
2022-10-13T05:46:52.141Z,19.87
2022-10-13T05:49:19.276Z,24.07
2022-10-13T05:51:47.759Z,24.27
2022-10-13T05:54:16.467Z,24.73
2022-10-13T05:56:45.554Z,27.20
2022-10-13T05:59:14.153Z,26.67
2022-10-13T06:01:44.501Z,22.47
2022-10-13T06:04:15.770Z,18.90
2022-10-13T06:06:45.675Z,24.67
2022-10-13T06:09:12.801Z,18.37
2022-10-13T06:11:40.498Z,25.60
2022-10-13T06:14:07.621Z,26.13
2022-10-13T06:16:35.570Z,22.20
2022-10-13T06:19:03.007Z,25.00
2022-10-13T06:21:31.495Z,17.93
2022-10-13T06:23:58.631Z,18.80
2022-10-13T06:26:25.693Z,24.50
2022-10-13T06:28:58.424Z,29.43
2022-10-13T06:31:26.565Z,22.60
2022-10-13T06:33:53.745Z,25.27
2022-10-13T06:36:20.938Z,19.90
2022-10-13T06:38:49.418Z,24.37
2022-10-13T06:41:19.088Z,24.70
2022-10-13T06:43:46.187Z,21.30
2022-10-13T06:46:13.560Z,26.63
2022-10-13T06:48:40.687Z,21.10
2022-10-13T06:51:08.360Z,21.33
2022-10-13T06:53:35.758Z,21.00
2022-10-13T06:56:06.053Z,18.93
2022-10-13T06:58:33.238Z,16.47
2022-10-13T07:01:00.428Z,21.90
2022-10-13T07:03:27.604Z,20.90
2022-10-13T07:05:54.746Z,18.27
2022-10-13T07:08:21.942Z,18.97
2022-10-13T07:10:49.082Z,23.00
2022-10-13T07:13:17.502Z,18.23
2022-10-13T07:15:44.691Z,19.87
2022-10-13T07:18:11.852Z,21.73
2022-10-13T07:20:38.975Z,19.50
2022-10-13T07:23:06.119Z,22.33
2022-10-13T07:25:33.226Z,23.50
2022-10-13T07:28:00.543Z,21.30
2022-10-13T07:30:29.001Z,18.13
2022-10-13T07:32:56.184Z,15.40
2022-10-13T07:35:26.952Z,21.80
2022-10-13T07:37:57.514Z,25.10
2022-10-13T07:40:24.874Z,17.70
2022-10-13T07:42:51.965Z,25.27
2022-10-13T07:45:19.092Z,21.00
2022-10-13T07:47:47.508Z,20.70
2022-10-13T07:50:14.611Z,19.13
2022-10-13T07:52:41.736Z,26.97
2022-10-13T07:55:12.077Z,20.80
2022-10-13T07:57:39.269Z,18.70
2022-10-13T08:00:06.899Z,22.03
2022-10-13T08:02:39.697Z,15.60
2022-10-13T08:05:09.108Z,16.03
2022-10-13T08:07:36.471Z,19.97
2022-10-13T08:10:04.156Z,19.90
2022-10-13T08:12:31.231Z,18.60
2022-10-13T08:15:00.498Z,17.80
2022-10-13T08:17:30.589Z,16.67
2022-10-13T08:19:57.691Z,19.07
2022-10-13T08:22:28.501Z,17.47
2022-10-13T08:24:55.871Z,20.70
2022-10-13T08:27:26.639Z,23.70
2022-10-13T08:30:04.597Z,18.50
2022-10-13T08:32:32.465Z,17.50
2022-10-13T08:34:59.561Z,23.10
2022-10-13T08:37:29.358Z,20.80
2022-10-13T08:39:56.558Z,23.17
2022-10-13T08:42:23.937Z,24.80
2022-10-13T08:47:42.293Z,20.53
2022-10-13T08:50:12.480Z,18.73
2022-10-13T08:52:46.322Z,19.83
2022-10-13T08:55:17.591Z,21.13
2022-10-13T08:57:44.729Z,22.13
2022-10-13T09:00:13.456Z,21.50
2022-10-13T09:02:43.706Z,20.00
2022-10-13T09:05:15.421Z,20.13
2022-10-13T09:07:44.919Z,24.60
2022-10-13T09:10:13.450Z,22.90
2022-10-13T09:12:40.555Z,18.17
2022-10-13T09:15:08.737Z,20.73
2022-10-13T09:17:37.483Z,17.83
2022-10-13T09:20:06.398Z,18.80
2022-10-13T09:22:34.204Z,17.63
2022-10-13T09:25:19.248Z,21.07
2022-10-13T09:27:48.675Z,19.80
2022-10-13T09:30:24.352Z,17.40
2022-10-13T09:32:56.558Z,25.37
2022-10-13T09:35:24.079Z,16.90
2022-10-13T09:38:02.130Z,15.53
2022-10-13T09:40:29.248Z,19.00
2022-10-13T09:42:57.892Z,16.40
2022-10-13T09:45:25.544Z,15.73
2022-10-13T09:47:54.460Z,14.97
2022-10-13T09:50:23.966Z,17.03
2022-10-13T09:52:52.110Z,22.03
2022-10-13T09:55:36.858Z,15.23
2022-10-13T09:58:07.559Z,15.93
2022-10-13T10:00:34.681Z,21.40
2022-10-13T10:03:05.228Z,18.73
2022-10-13T10:05:38.556Z,17.33
2022-10-13T10:08:11.867Z,20.57
2022-10-13T10:10:41.358Z,17.90
2022-10-13T10:13:12.055Z,22.93
2022-10-13T10:15:43.774Z,15.57
2022-10-13T10:18:15.255Z,14.10
2022-10-13T10:20:51.119Z,16.80
2022-10-13T10:23:19.527Z,27.53
2022-10-13T10:25:48.563Z,16.13
2022-10-13T10:28:32.149Z,17.13
2022-10-13T10:31:04.595Z,13.43
2022-10-13T10:33:36.755Z,19.50
2022-10-13T10:36:07.602Z,17.67
2022-10-13T10:38:41.085Z,16.10
2022-10-13T10:41:13.495Z,15.67
2022-10-13T10:43:48.251Z,16.63
2022-10-13T10:46:18.699Z,20.13
2022-10-13T10:48:46.323Z,17.13
2022-10-13T10:51:15.322Z,18.27
2022-10-13T10:54:03.252Z,22.60
2022-10-13T10:56:33.009Z,21.43
2022-10-13T10:59:13.268Z,17.70
2022-10-13T11:01:43.291Z,20.43
2022-10-13T11:04:31.269Z,17.67
2022-10-13T11:06:59.621Z,14.83
2022-10-13T11:09:45.478Z,16.80
2022-10-13T11:12:22.805Z,17.33
2022-10-13T11:15:02.929Z,17.33
2022-10-13T11:17:30.741Z,18.93
2022-10-13T11:19:58.696Z,16.20
2022-10-13T11:22:26.299Z,15.20
2022-10-13T11:25:17.335Z,19.57
2022-10-13T11:27:44.838Z,18.73
2022-10-13T11:30:30.518Z,20.07
2022-10-13T11:32:59.011Z,15.77
2022-10-13T11:35:27.739Z,21.70
2022-10-13T11:38:07.980Z,20.87
2022-10-13T11:40:40.911Z,20.47
2022-10-13T11:43:21.998Z,18.47
2022-10-13T11:45:59.739Z,16.83
2022-10-13T11:48:39.173Z,17.77
2022-10-13T11:51:12.615Z,26.53
2022-10-13T11:53:48.331Z,9.47
2022-10-13T11:56:20.312Z,7.77
2022-10-13T11:58:47.380Z,10.23
2022-10-13T12:01:15.588Z,6.53
2022-10-13T12:03:45.129Z,8.63
2022-10-13T12:06:23.831Z,7.53
2022-10-13T12:08:52.143Z,13.20
2022-10-13T12:11:25.573Z,8.97
2022-10-13T12:13:53.372Z,13.63
2022-10-13T12:16:21.625Z,7.43
2022-10-13T12:18:52.804Z,8.43
2022-10-13T12:21:20.681Z,7.50
2022-10-13T12:23:48.393Z,5.60
2022-10-13T12:26:16.336Z,11.80
2022-10-13T12:28:49.297Z,11.50
2022-10-13T12:31:18.626Z,7.33
2022-10-13T12:33:52.157Z,8.90
2022-10-13T12:36:21.872Z,8.27
2022-10-13T12:38:50.115Z,10.33
2022-10-13T12:41:18.104Z,13.20
2022-10-13T12:43:45.754Z,9.40
2022-10-13T12:46:12.855Z,9.00
2022-10-13T12:48:39.963Z,7.40
2022-10-13T12:51:16.824Z,10.50
2022-10-13T12:53:45.798Z,10.73
2022-10-13T12:56:23.159Z,16.33
2022-10-13T12:58:50.278Z,12.17
2022-10-13T13:01:23.957Z,6.70
2022-10-13T13:03:54.628Z,11.50
2022-10-13T13:06:23.174Z,9.33
2022-10-13T13:09:05.150Z,9.97
2022-10-13T13:11:37.506Z,7.37
2022-10-13T13:14:23.432Z,6.77
2022-10-13T13:17:03.157Z,9.50
2022-10-13T13:19:31.609Z,9.57
2022-10-13T13:21:58.717Z,9.17
2022-10-13T13:24:39.062Z,8.50
2022-10-13T13:27:18.842Z,10.20
2022-10-13T13:29:46.253Z,6.93
2022-10-13T13:32:13.702Z,7.63
2022-10-13T13:34:40.824Z,10.33
2022-10-13T13:37:12.519Z,10.43
2022-10-13T13:39:39.578Z,10.73
2022-10-13T13:42:06.700Z,10.03
2022-10-13T13:44:38.012Z,12.47
2022-10-13T13:47:05.263Z,8.47
2022-10-13T13:49:32.787Z,9.10
2022-10-13T13:51:59.871Z,11.53
2022-10-13T13:54:26.967Z,11.97
2022-10-13T13:56:58.586Z,9.87
2022-10-13T13:59:26.038Z,11.13
2022-10-13T14:01:54.790Z,16.47
2022-10-13T14:04:22.272Z,13.70
2022-10-13T14:06:49.386Z,15.57
2022-10-13T14:09:16.465Z,21.47
2022-10-13T14:11:43.553Z,16.40
2022-10-13T14:14:10.681Z,16.53
2022-10-13T14:16:37.761Z,14.30
2022-10-13T14:19:07.515Z,16.53
2022-10-13T14:21:34.781Z,13.67
2022-10-13T14:24:02.281Z,10.60
2022-10-13T14:26:29.349Z,11.13
2022-10-13T14:28:57.066Z,13.93
2022-10-13T14:31:24.424Z,17.47
2022-10-13T14:33:54.236Z,14.67
2022-10-13T14:36:25.326Z,14.00
2022-10-13T14:38:52.514Z,18.10
2022-10-13T14:41:19.573Z,12.83
2022-10-13T14:43:52.229Z,12.10
2022-10-13T14:46:19.300Z,17.53
2022-10-13T14:48:46.421Z,13.77
2022-10-13T14:51:13.943Z,15.33
2022-10-13T14:53:43.419Z,14.60
2022-10-13T14:56:18.356Z,16.20
2022-10-13T14:58:50.597Z,18.80
2022-10-13T15:01:17.838Z,21.00
2022-10-13T15:03:45.448Z,16.80
2022-10-13T15:06:14.252Z,19.07
2022-10-13T15:08:42.946Z,17.20
2022-10-13T15:11:10.378Z,18.60
2022-10-13T15:13:37.918Z,17.40
2022-10-13T15:16:05.512Z,18.80
2022-10-13T15:18:32.972Z,17.53
2022-10-13T15:21:00.199Z,18.97
2022-10-13T15:23:27.509Z,19.43
2022-10-13T15:25:56.651Z,18.37
2022-10-13T15:28:24.289Z,22.27
2022-10-13T15:30:51.429Z,23.77
2022-10-13T15:33:21.816Z,26.17
2022-10-13T15:35:49.588Z,20.10
2022-10-13T15:38:16.849Z,23.90
2022-10-13T15:40:43.954Z,25.80
2022-10-13T15:43:12.488Z,20.07
2022-10-13T15:45:39.706Z,27.07
2022-10-13T15:48:07.527Z,23.77
2022-10-13T15:50:34.700Z,24.17
2022-10-13T15:53:01.889Z,21.57
2022-10-13T15:55:29.012Z,23.07
2022-10-13T15:57:56.113Z,30.27
2022-10-13T16:00:24.742Z,24.57
2022-10-13T16:02:52.018Z,25.30
2022-10-13T16:05:19.766Z,24.40
2022-10-13T16:07:46.874Z,22.33
2022-10-13T16:10:14.982Z,28.27
2022-10-13T16:12:46.801Z,27.40
2022-10-13T16:15:16.576Z,26.77
2022-10-13T16:17:45.040Z,26.57
2022-10-13T16:20:12.775Z,30.43
2022-10-13T16:22:39.869Z,23.53
2022-10-13T16:25:08.528Z,27.40
2022-10-13T16:27:36.412Z,28.83
2022-10-13T16:30:06.041Z,28.67
2022-10-13T16:32:37.824Z,24.67
2022-10-13T16:35:07.032Z,25.87
2022-10-13T16:37:34.231Z,32.83
2022-10-13T16:40:01.313Z,26.00
2022-10-13T16:42:28.386Z,24.50
2022-10-13T16:44:55.484Z,30.13
2022-10-13T16:47:27.315Z,32.10
2022-10-13T16:49:54.473Z,30.03
2022-10-13T16:52:22.971Z,29.33
2022-10-13T16:54:50.696Z,29.77
2022-10-13T16:57:17.988Z,31.07
2022-10-13T16:59:48.320Z,23.67
2022-10-13T17:02:15.774Z,33.10
2022-10-13T17:04:43.097Z,28.83
2022-10-13T17:07:10.172Z,31.00
2022-10-13T17:09:38.621Z,30.97
2022-10-13T17:12:06.222Z,29.47
2022-10-13T17:14:33.342Z,30.77
2022-10-13T17:17:00.474Z,29.07
2022-10-13T17:19:27.553Z,35.20
2022-10-13T17:21:54.652Z,34.50
2022-10-13T17:24:21.759Z,30.00
2022-10-13T17:26:50.747Z,30.13
2022-10-13T17:29:17.884Z,34.57
2022-10-13T17:31:45.639Z,34.67
2022-10-13T17:34:12.759Z,27.23
2022-10-13T17:36:39.871Z,30.90
2022-10-13T17:39:10.523Z,28.83
2022-10-13T17:41:40.122Z,28.40
2022-10-13T17:44:08.623Z,24.83
2022-10-13T17:46:38.023Z,22.17
2022-10-13T17:49:05.690Z,20.37
2022-10-13T17:51:32.776Z,23.00
2022-10-13T17:54:00.451Z,25.47
2022-10-13T17:56:28.371Z,20.83
2022-10-13T17:58:55.523Z,19.40
2022-10-13T18:01:24.938Z,23.47
2022-10-13T18:03:53.492Z,23.57
2022-10-13T18:06:26.246Z,19.43
2022-10-13T18:08:53.338Z,22.00
2022-10-13T18:11:21.360Z,22.87
2022-10-13T18:13:48.528Z,25.87
2022-10-13T18:16:16.796Z,23.73
2022-10-13T18:18:45.534Z,25.50
2022-10-13T18:21:13.592Z,27.53
2022-10-13T18:23:41.253Z,24.10
2022-10-13T18:26:10.922Z,25.60
2022-10-13T18:28:38.429Z,26.07
2022-10-13T18:31:06.130Z,26.17
2022-10-13T18:33:33.381Z,24.80
2022-10-13T18:36:02.203Z,24.70
2022-10-13T18:38:29.301Z,22.10
2022-10-13T18:40:59.750Z,23.50
2022-10-13T18:43:26.856Z,23.67
2022-10-13T18:45:53.941Z,24.20
2022-10-13T18:48:21.027Z,20.90
2022-10-13T18:50:48.117Z,29.17
2022-10-13T18:53:16.568Z,26.03
2022-10-13T18:55:43.760Z,27.77
2022-10-13T18:58:10.915Z,25.27
2022-10-13T19:00:38.077Z,25.43
2022-10-13T19:03:05.188Z,27.50
2022-10-13T19:05:32.386Z,28.13
2022-10-13T19:07:59.536Z,21.90
2022-10-13T19:10:29.297Z,19.73
2022-10-13T19:12:56.370Z,19.97
2022-10-13T19:15:23.954Z,20.43
2022-10-13T19:17:51.929Z,20.50
2022-10-13T19:20:19.026Z,20.97
2022-10-13T19:22:46.126Z,17.50
2022-10-13T19:25:15.521Z,18.07
2022-10-13T19:27:43.954Z,20.77
2022-10-13T19:30:11.623Z,17.03
2022-10-13T19:32:38.950Z,12.00
2022-10-13T19:35:06.201Z,20.80
2022-10-13T19:37:33.448Z,16.20
2022-10-13T19:40:00.555Z,17.50
2022-10-13T19:42:29.206Z,20.37
2022-10-13T19:44:57.649Z,12.70
2022-10-13T19:47:24.721Z,15.33
2022-10-13T19:49:51.813Z,14.70
2022-10-13T19:52:18.925Z,10.70
2022-10-13T19:54:46.015Z,10.90
2022-10-13T19:57:13.122Z,9.40
2022-10-13T19:59:44.037Z,7.87
2022-10-13T20:02:15.212Z,15.97
2022-10-13T20:04:42.336Z,9.60
2022-10-13T20:07:09.446Z,9.70
2022-10-13T20:09:36.546Z,12.73
2022-10-13T20:12:03.785Z,6.90
2022-10-13T20:14:32.039Z,14.40
2022-10-13T20:16:59.126Z,10.43
2022-10-13T20:19:27.561Z,11.30
2022-10-13T20:21:54.661Z,10.10
2022-10-13T20:24:21.895Z,9.03
2022-10-13T20:26:49.060Z,8.73
2022-10-13T20:29:19.590Z,13.13
2022-10-13T20:31:46.812Z,12.47
2022-10-13T20:34:13.930Z,13.70
2022-10-13T20:36:42.370Z,9.53
2022-10-13T20:39:09.490Z,13.93
2022-10-13T20:41:36.590Z,12.03
2022-10-13T20:44:04.036Z,30.37
2022-10-13T20:46:33.633Z,13.53
2022-10-13T20:49:16.052Z,10.93
2022-10-13T20:51:45.029Z,11.97
2022-10-13T20:54:13.216Z,13.30
2022-10-13T20:56:40.547Z,16.50
2022-10-13T20:59:08.494Z,10.60
2022-10-13T21:01:35.617Z,12.40
2022-10-13T21:04:02.929Z,11.67
2022-10-13T21:06:30.062Z,15.03
2022-10-13T21:09:02.119Z,11.60
2022-10-13T21:11:29.194Z,15.73
2022-10-13T21:13:56.312Z,16.97
2022-10-13T21:16:24.797Z,10.93
2022-10-13T21:18:52.235Z,14.10
2022-10-13T21:21:20.514Z,11.07
2022-10-13T21:23:51.473Z,12.77
2022-10-13T21:26:21.968Z,11.30
2022-10-13T21:28:49.784Z,11.73
2022-10-13T21:31:17.340Z,10.03
2022-10-13T21:33:44.670Z,11.70
2022-10-13T21:36:12.939Z,12.67
2022-10-13T21:38:40.048Z,11.00
2022-10-13T21:41:07.917Z,12.83
2022-10-13T21:43:36.629Z,22.57
2022-10-13T21:46:09.929Z,13.13
2022-10-13T21:48:39.072Z,13.40
2022-10-13T21:51:12.776Z,13.90
2022-10-13T21:53:39.899Z,13.13
2022-10-13T21:56:07.488Z,15.03
2022-10-13T21:58:34.660Z,9.30
2022-10-13T22:01:03.366Z,10.10
2022-10-13T22:03:30.491Z,11.00
2022-10-13T22:05:57.587Z,10.67
2022-10-13T22:08:37.706Z,12.70
2022-10-13T22:11:13.720Z,12.60
2022-10-13T22:13:40.884Z,11.33
2022-10-13T22:16:10.600Z,11.60
2022-10-13T22:18:41.104Z,13.20
2022-10-13T22:21:09.298Z,9.80
2022-10-13T22:23:36.723Z,20.63
2022-10-13T22:26:03.817Z,11.53
2022-10-13T22:28:36.092Z,17.27
2022-10-13T22:31:04.978Z,13.00
2022-10-13T22:33:33.904Z,15.43
2022-10-13T22:36:01.051Z,16.20
2022-10-13T22:38:28.128Z,10.67
2022-10-13T22:40:55.229Z,19.10
2022-10-13T22:43:22.315Z,14.50
2022-10-13T22:45:50.217Z,15.10
2022-10-13T22:48:17.288Z,12.20
2022-10-13T22:50:45.882Z,13.83
2022-10-13T22:53:12.972Z,14.13
2022-10-13T22:55:40.171Z,16.07
2022-10-13T22:58:07.648Z,17.37
2022-10-13T23:00:35.199Z,11.47
2022-10-13T23:03:02.343Z,16.53
2022-10-13T23:05:29.516Z,13.63
2022-10-13T23:07:57.982Z,17.50
2022-10-13T23:10:25.624Z,17.73
2022-10-13T23:12:52.708Z,13.20
2022-10-13T23:15:19.790Z,18.17
2022-10-13T23:17:46.903Z,17.10
2022-10-13T23:20:13.978Z,27.10
2022-10-13T23:22:41.068Z,19.83
2022-10-13T23:25:09.910Z,19.93
2022-10-13T23:27:38.113Z,23.13
2022-10-13T23:30:05.719Z,20.20
2022-10-13T23:32:32.888Z,20.10
2022-10-13T23:34:59.982Z,21.27
2022-10-13T23:37:32.459Z,22.10
2022-10-13T23:39:59.528Z,21.27
2022-10-13T23:42:29.036Z,22.70
2022-10-13T23:44:56.108Z,28.23
2022-10-13T23:47:23.714Z,23.30
2022-10-13T23:49:50.996Z,24.70
2022-10-13T23:52:19.227Z,24.13
2022-10-13T23:54:46.322Z,26.03
2022-10-13T23:57:13.739Z,23.53
2022-10-13T23:59:42.187Z,28.10
